sensor_id;sensor_type;location;lat;lon;timestamp;pressure;altitude;pressure_sealevel;temperature;humidity
55801;BME280;41730;51.960;20.158;2023-02-24T00:00:23;99392.30;;;5.42;69.68
55801;BME280;41730;51.960;20.158;2023-02-24T00:03:08;99389.55;;;5.48;69.44
55801;BME280;41730;51.960;20.158;2023-02-24T00:05:41;99382.38;;;5.44;69.73
55801;BME280;41730;51.960;20.158;2023-02-24T00:08:14;99383.10;;;5.44;69.80
55801;BME280;41730;51.960;20.158;2023-02-24T00:10:46;99372.54;;;5.41;70.12
55801;BME280;41730;51.960;20.158;2023-02-24T00:13:19;99369.23;;;5.48;69.98
55801;BME280;41730;51.960;20.158;2023-02-24T00:16:01;99370.86;;;5.49;70.04
55801;BME280;41730;51.960;20.158;2023-02-24T00:18:34;99362.77;;;5.51;70.09
55801;BME280;41730;51.960;20.158;2023-02-24T00:21:09;99361.69;;;5.65;69.95
55801;BME280;41730;51.960;20.158;2023-02-24T00:23:45;99360.05;;;5.57;69.94
55801;BME280;41730;51.960;20.158;2023-02-24T00:26:17;99354.92;;;5.60;70.16
55801;BME280;41730;51.960;20.158;2023-02-24T00:28:49;99352.74;;;5.59;70.13
55801;BME280;41730;51.960;20.158;2023-02-24T00:31:21;99344.63;;;5.56;70.33
55801;BME280;41730;51.960;20.158;2023-02-24T00:33:54;99344.95;;;5.56;70.52
55801;BME280;41730;51.960;20.158;2023-02-24T00:36:28;99335.33;;;5.62;70.58
55801;BME280;41730;51.960;20.158;2023-02-24T00:39:04;99326.56;;;5.58;70.60
55801;BME280;41730;51.960;20.158;2023-02-24T00:41:40;99321.08;;;5.50;70.92
55801;BME280;41730;51.960;20.158;2023-02-24T00:44:13;99308.98;;;5.51;71.02
55801;BME280;41730;51.960;20.158;2023-02-24T00:46:46;99300.55;;;5.64;71.01
55801;BME280;41730;51.960;20.158;2023-02-24T00:49:19;99298.59;;;5.62;70.81
55801;BME280;41730;51.960;20.158;2023-02-24T00:51:53;99306.18;;;5.47;71.46
55801;BME280;41730;51.960;20.158;2023-02-24T00:54:26;99305.10;;;5.57;71.37
55801;BME280;41730;51.960;20.158;2023-02-24T00:56:58;99302.35;;;5.66;71.21
55801;BME280;41730;51.960;20.158;2023-02-24T00:59:33;99302.65;;;5.73;71.01
55801;BME280;41730;51.960;20.158;2023-02-24T01:02:05;99300.09;;;5.74;71.09
55801;BME280;41730;51.960;20.158;2023-02-24T01:04:38;99298.55;;;5.74;71.30
55801;BME280;41730;51.960;20.158;2023-02-24T01:07:10;99297.03;;;5.85;71.08
55801;BME280;41730;51.960;20.158;2023-02-24T01:09:44;99293.71;;;5.85;71.05
55801;BME280;41730;51.960;20.158;2023-02-24T01:12:16;99289.60;;;5.89;71.03
55801;BME280;41730;51.960;20.158;2023-02-24T01:15:10;99286.87;;;5.97;70.78
55801;BME280;41730;51.960;20.158;2023-02-24T01:17:42;99287.77;;;5.99;70.89
55801;BME280;41730;51.960;20.158;2023-02-24T01:20:16;99287.91;;;5.95;70.95
55801;BME280;41730;51.960;20.158;2023-02-24T01:22:48;99279.55;;;5.93;71.10
55801;BME280;41730;51.960;20.158;2023-02-24T01:25:22;99277.50;;;5.97;70.76
55801;BME280;41730;51.960;20.158;2023-02-24T01:27:55;99275.08;;;6.04;70.94
55801;BME280;41730;51.960;20.158;2023-02-24T01:30:27;99267.45;;;6.07;70.91
55801;BME280;41730;51.960;20.158;2023-02-24T01:33:00;99268.39;;;6.09;70.95
55801;BME280;41730;51.960;20.158;2023-02-24T01:35:33;99268.23;;;6.04;71.20
55801;BME280;41730;51.960;20.158;2023-02-24T01:38:04;99264.63;;;6.04;71.40
55801;BME280;41730;51.960;20.158;2023-02-24T01:40:36;99263.56;;;6.04;71.52
55801;BME280;41730;51.960;20.158;2023-02-24T01:43:10;99261.84;;;6.06;71.81
55801;BME280;41730;51.960;20.158;2023-02-24T01:45:42;99255.98;;;6.20;71.46
55801;BME280;41730;51.960;20.158;2023-02-24T01:48:14;99256.27;;;6.21;71.57
55801;BME280;41730;51.960;20.158;2023-02-24T01:50:47;99254.26;;;6.15;71.82
55801;BME280;41730;51.960;20.158;2023-02-24T01:53:19;99253.36;;;6.16;72.10
55801;BME280;41730;51.960;20.158;2023-02-24T01:55:53;99252.26;;;6.21;72.03
55801;BME280;41730;51.960;20.158;2023-02-24T01:58:27;99249.83;;;6.26;72.06
55801;BME280;41730;51.960;20.158;2023-02-24T02:01:01;99243.00;;;6.37;71.81
55801;BME280;41730;51.960;20.158;2023-02-24T02:03:39;99244.48;;;6.36;71.96
55801;BME280;41730;51.960;20.158;2023-02-24T02:06:14;99235.72;;;6.37;72.13
55801;BME280;41730;51.960;20.158;2023-02-24T02:08:48;99236.39;;;6.43;72.01
55801;BME280;41730;51.960;20.158;2023-02-24T02:11:20;99233.69;;;6.36;72.14
55801;BME280;41730;51.960;20.158;2023-02-24T02:13:53;99232.89;;;6.33;72.33
55801;BME280;41730;51.960;20.158;2023-02-24T02:16:50;99227.33;;;6.31;72.38
55801;BME280;41730;51.960;20.158;2023-02-24T02:20:09;99226.50;;;6.32;72.55
55801;BME280;41730;51.960;20.158;2023-02-24T02:26:05;99217.81;;;6.45;72.20
55801;BME280;41730;51.960;20.158;2023-02-24T02:29:08;99214.07;;;6.39;72.31
55801;BME280;41730;51.960;20.158;2023-02-24T02:32:00;99210.71;;;6.40;72.48
55801;BME280;41730;51.960;20.158;2023-02-24T02:34:45;99208.17;;;6.50;72.39
55801;BME280;41730;51.960;20.158;2023-02-24T02:37:23;99203.81;;;6.67;71.85
55801;BME280;41730;51.960;20.158;2023-02-24T02:40:03;99200.65;;;6.67;71.88
55801;BME280;41730;51.960;20.158;2023-02-24T02:42:49;99199.67;;;6.64;72.04
55801;BME280;41730;51.960;20.158;2023-02-24T02:45:32;99194.30;;;6.51;72.43
55801;BME280;41730;51.960;20.158;2023-02-24T02:48:12;99193.33;;;6.49;72.76
55801;BME280;41730;51.960;20.158;2023-02-24T02:50:50;99198.14;;;6.43;72.80
55801;BME280;41730;51.960;20.158;2023-02-24T02:53:26;99198.53;;;6.40;73.12
55801;BME280;41730;51.960;20.158;2023-02-24T02:56:05;99191.42;;;6.37;73.36
55801;BME280;41730;51.960;20.158;2023-02-24T02:58:43;99188.52;;;6.46;73.08
55801;BME280;41730;51.960;20.158;2023-02-24T03:01:18;99182.96;;;6.41;73.31
55801;BME280;41730;51.960;20.158;2023-02-24T03:03:55;99187.75;;;6.40;73.59
55801;BME280;41730;51.960;20.158;2023-02-24T03:06:29;99181.89;;;6.35;73.67
55801;BME280;41730;51.960;20.158;2023-02-24T03:12:28;99181.86;;;6.50;73.57
55801;BME280;41730;51.960;20.158;2023-02-24T03:15:04;99180.14;;;6.50;73.42
55801;BME280;41730;51.960;20.158;2023-02-24T03:17:41;99171.61;;;6.37;73.93
55801;BME280;41730;51.960;20.158;2023-02-24T03:20:21;99169.98;;;6.50;73.92
55801;BME280;41730;51.960;20.158;2023-02-24T03:23:01;99166.52;;;6.61;73.53
55801;BME280;41730;51.960;20.158;2023-02-24T03:25:37;99168.70;;;6.51;73.76
55801;BME280;41730;51.960;20.158;2023-02-24T03:28:17;99162.24;;;6.51;73.92
55801;BME280;41730;51.960;20.158;2023-02-24T03:30:55;99160.52;;;6.49;74.08
55801;BME280;41730;51.960;20.158;2023-02-24T03:33:35;99156.63;;;6.39;74.38
55801;BME280;41730;51.960;20.158;2023-02-24T03:36:10;99160.68;;;6.30;74.80
55801;BME280;41730;51.960;20.158;2023-02-24T03:38:44;99159.30;;;6.32;75.02
55801;BME280;41730;51.960;20.158;2023-02-24T03:41:19;99154.18;;;6.33;75.02
55801;BME280;41730;51.960;20.158;2023-02-24T03:43:51;99149.40;;;6.51;74.55
55801;BME280;41730;51.960;20.158;2023-02-24T03:46:24;99149.17;;;6.56;74.51
55801;BME280;41730;51.960;20.158;2023-02-24T03:49:04;99147.38;;;6.58;74.33
55801;BME280;41730;51.960;20.158;2023-02-24T03:51:42;99143.58;;;6.50;74.67
55801;BME280;41730;51.960;20.158;2023-02-24T03:54:27;99140.71;;;6.49;74.64
55801;BME280;41730;51.960;20.158;2023-02-24T03:57:13;99140.64;;;6.43;75.13
55801;BME280;41730;51.960;20.158;2023-02-24T03:59:53;99137.70;;;6.49;74.99
55801;BME280;41730;51.960;20.158;2023-02-24T04:02:47;99133.42;;;6.44;75.16
55801;BME280;41730;51.960;20.158;2023-02-24T04:05:23;99128.33;;;6.43;75.22
55801;BME280;41730;51.960;20.158;2023-02-24T04:08:01;99123.84;;;6.38;75.66
55801;BME280;41730;51.960;20.158;2023-02-24T04:10:38;99120.00;;;6.42;75.58
55801;BME280;41730;51.960;20.158;2023-02-24T04:13:18;99112.66;;;6.49;75.41
55801;BME280;41730;51.960;20.158;2023-02-24T04:15:57;99114.83;;;6.44;75.74
55801;BME280;41730;51.960;20.158;2023-02-24T04:18:32;99112.95;;;6.45;75.79
55801;BME280;41730;51.960;20.158;2023-02-24T04:21:06;99109.90;;;6.38;76.12
55801;BME280;41730;51.960;20.158;2023-02-24T04:23:40;99107.37;;;6.37;76.26
55801;BME280;41730;51.960;20.158;2023-02-24T04:26:16;99105.95;;;6.35;76.35
55801;BME280;41730;51.960;20.158;2023-02-24T04:28:52;99097.67;;;6.37;76.66
55801;BME280;41730;51.960;20.158;2023-02-24T04:31:29;99095.52;;;6.42;76.51
55801;BME280;41730;51.960;20.158;2023-02-24T04:34:08;99092.13;;;6.42;76.47
55801;BME280;41730;51.960;20.158;2023-02-24T04:36:42;99086.39;;;6.42;76.53
55801;BME280;41730;51.960;20.158;2023-02-24T04:39:19;99084.28;;;6.36;76.90
55801;BME280;41730;51.960;20.158;2023-02-24T04:41:52;99082.48;;;6.37;77.18
55801;BME280;41730;51.960;20.158;2023-02-24T04:44:26;99082.70;;;6.55;76.75
55801;BME280;41730;51.960;20.158;2023-02-24T04:46:58;99079.79;;;6.63;76.45
55801;BME280;41730;51.960;20.158;2023-02-24T04:49:30;99074.86;;;6.62;76.60
55801;BME280;41730;51.960;20.158;2023-02-24T04:52:03;99069.28;;;6.68;76.75
55801;BME280;41730;51.960;20.158;2023-02-24T04:54:36;99071.89;;;6.63;76.66
55801;BME280;41730;51.960;20.158;2023-02-24T04:57:07;99070.10;;;6.66;76.96
55801;BME280;41730;51.960;20.158;2023-02-24T04:59:40;99065.35;;;6.63;77.13
55801;BME280;41730;51.960;20.158;2023-02-24T05:02:11;99065.63;;;6.66;77.37
55801;BME280;41730;51.960;20.158;2023-02-24T05:04:49;99058.46;;;6.74;77.05
55801;BME280;41730;51.960;20.158;2023-02-24T05:07:20;99061.36;;;6.67;77.38
55801;BME280;41730;51.960;20.158;2023-02-24T05:09:52;99056.13;;;6.67;77.62
55801;BME280;41730;51.960;20.158;2023-02-24T05:12:24;99054.48;;;6.68;77.96
55801;BME280;41730;51.960;20.158;2023-02-24T05:14:59;99051.63;;;6.69;78.22
55801;BME280;41730;51.960;20.158;2023-02-24T05:17:32;99051.91;;;6.96;77.22
55801;BME280;41730;51.960;20.158;2023-02-24T05:20:07;99048.88;;;7.00;77.15
55801;BME280;41730;51.960;20.158;2023-02-24T05:22:57;99049.89;;;6.93;77.32
55801;BME280;41730;51.960;20.158;2023-02-24T05:25:31;99047.83;;;7.03;77.22
55801;BME280;41730;51.960;20.158;2023-02-24T05:28:07;99046.39;;;7.08;77.07
55801;BME280;41730;51.960;20.158;2023-02-24T05:30:39;99045.02;;;6.99;77.36
55801;BME280;41730;51.960;20.158;2023-02-24T05:33:12;99044.67;;;6.95;77.74
55801;BME280;41730;51.960;20.158;2023-02-24T05:35:44;99046.08;;;6.97;77.83
55801;BME280;41730;51.960;20.158;2023-02-24T05:38:16;99042.54;;;6.99;77.72
55801;BME280;41730;51.960;20.158;2023-02-24T05:40:48;99043.05;;;6.99;77.81
55801;BME280;41730;51.960;20.158;2023-02-24T05:43:27;99040.83;;;6.91;78.17
55801;BME280;41730;51.960;20.158;2023-02-24T05:46:02;99039.15;;;6.96;78.14
55801;BME280;41730;51.960;20.158;2023-02-24T05:48:34;99036.24;;;6.99;78.12
55801;BME280;41730;51.960;20.158;2023-02-24T05:51:06;99038.48;;;6.98;78.23
55801;BME280;41730;51.960;20.158;2023-02-24T05:53:40;99040.64;;;7.06;78.05
55801;BME280;41730;51.960;20.158;2023-02-24T05:56:13;99037.84;;;7.03;78.23
55801;BME280;41730;51.960;20.158;2023-02-24T05:58:49;99034.63;;;7.02;78.28
55801;BME280;41730;51.960;20.158;2023-02-24T06:01:32;99032.95;;;6.95;78.32
55801;BME280;41730;51.960;20.158;2023-02-24T06:04:06;99034.59;;;6.92;78.83
55801;BME280;41730;51.960;20.158;2023-02-24T06:06:39;99030.14;;;6.94;78.95
55801;BME280;41730;51.960;20.158;2023-02-24T06:09:13;99025.41;;;7.04;78.73
55801;BME280;41730;51.960;20.158;2023-02-24T06:11:45;99025.87;;;7.09;78.54
55801;BME280;41730;51.960;20.158;2023-02-24T06:14:17;99023.50;;;6.96;78.97
55801;BME280;41730;51.960;20.158;2023-02-24T06:16:50;99022.80;;;6.90;79.38
55801;BME280;41730;51.960;20.158;2023-02-24T06:19:23;99018.02;;;6.97;79.33
55801;BME280;41730;51.960;20.158;2023-02-24T06:21:55;99016.84;;;7.00;79.12
55801;BME280;41730;51.960;20.158;2023-02-24T06:24:31;99017.01;;;6.98;79.21
55801;BME280;41730;51.960;20.158;2023-02-24T06:27:05;99013.72;;;6.96;79.38
55801;BME280;41730;51.960;20.158;2023-02-24T06:29:41;99013.93;;;6.92;79.60
55801;BME280;41730;51.960;20.158;2023-02-24T06:32:13;99006.08;;;6.90;79.87
55801;BME280;41730;51.960;20.158;2023-02-24T06:34:45;99005.73;;;6.88;80.04
55801;BME280;41730;51.960;20.158;2023-02-24T06:37:18;99007.39;;;6.95;79.73
55801;BME280;41730;51.960;20.158;2023-02-24T06:39:51;99007.51;;;6.95;79.71
55801;BME280;41730;51.960;20.158;2023-02-24T06:42:23;99004.87;;;6.90;79.86
55801;BME280;41730;51.960;20.158;2023-02-24T06:44:55;99001.53;;;6.96;79.89
55801;BME280;41730;51.960;20.158;2023-02-24T06:47:27;99001.70;;;6.98;79.78
55801;BME280;41730;51.960;20.158;2023-02-24T06:50:00;99002.87;;;7.00;79.81
55801;BME280;41730;51.960;20.158;2023-02-24T06:52:32;99000.28;;;6.92;80.04
55801;BME280;41730;51.960;20.158;2023-02-24T06:55:07;99003.66;;;6.92;80.38
55801;BME280;41730;51.960;20.158;2023-02-24T06:57:56;99002.48;;;7.03;80.06
55801;BME280;41730;51.960;20.158;2023-02-24T07:00:33;98999.84;;;7.10;79.83
55801;BME280;41730;51.960;20.158;2023-02-24T07:03:15;99001.17;;;7.08;79.93
55801;BME280;41730;51.960;20.158;2023-02-24T07:05:52;99003.22;;;7.11;80.02
55801;BME280;41730;51.960;20.158;2023-02-24T07:08:40;98996.39;;;7.17;79.76
55801;BME280;41730;51.960;20.158;2023-02-24T07:11:13;98996.70;;;7.19;79.80
55801;BME280;41730;51.960;20.158;2023-02-24T07:13:47;98990.86;;;7.28;79.63
55801;BME280;41730;51.960;20.158;2023-02-24T07:16:21;98992.07;;;7.21;79.62
55801;BME280;41730;51.960;20.158;2023-02-24T07:18:56;98987.63;;;7.06;80.41
55801;BME280;41730;51.960;20.158;2023-02-24T07:21:30;98986.23;;;7.08;80.74
55801;BME280;41730;51.960;20.158;2023-02-24T07:24:09;98984.45;;;7.08;80.66
55801;BME280;41730;51.960;20.158;2023-02-24T07:26:43;98979.79;;;7.12;80.80
55801;BME280;41730;51.960;20.158;2023-02-24T07:29:21;98977.64;;;7.20;80.54
55801;BME280;41730;51.960;20.158;2023-02-24T07:31:54;98974.48;;;7.11;80.73
55801;BME280;41730;51.960;20.158;2023-02-24T07:34:31;98975.80;;;7.10;81.15
55801;BME280;41730;51.960;20.158;2023-02-24T07:37:03;98969.39;;;7.23;80.84
55801;BME280;41730;51.960;20.158;2023-02-24T07:39:38;98970.27;;;7.21;80.90
55801;BME280;41730;51.960;20.158;2023-02-24T07:42:12;98965.27;;;7.16;81.21
55801;BME280;41730;51.960;20.158;2023-02-24T07:44:45;98962.39;;;7.13;81.22
55801;BME280;41730;51.960;20.158;2023-02-24T07:47:18;98960.19;;;7.30;80.99
55801;BME280;41730;51.960;20.158;2023-02-24T07:49:51;98956.10;;;7.41;80.59
55801;BME280;41730;51.960;20.158;2023-02-24T07:52:25;98952.00;;;7.41;80.39
55801;BME280;41730;51.960;20.158;2023-02-24T07:54:57;98949.55;;;7.34;80.66
55801;BME280;41730;51.960;20.158;2023-02-24T07:57:30;98951.73;;;7.25;81.09
55801;BME280;41730;51.960;20.158;2023-02-24T08:00:05;98948.27;;;7.35;80.99
55801;BME280;41730;51.960;20.158;2023-02-24T08:02:50;98944.27;;;7.42;80.79
55801;BME280;41730;51.960;20.158;2023-02-24T08:05:26;98946.19;;;7.33;81.14
55801;BME280;41730;51.960;20.158;2023-02-24T08:08:01;98941.19;;;7.34;81.13
55801;BME280;41730;51.960;20.158;2023-02-24T08:10:33;98935.95;;;7.34;81.15
55801;BME280;41730;51.960;20.158;2023-02-24T08:13:06;98932.87;;;7.33;81.41
55801;BME280;41730;51.960;20.158;2023-02-24T08:15:41;98931.88;;;7.35;81.23
55801;BME280;41730;51.960;20.158;2023-02-24T08:18:15;98929.01;;;7.37;81.16
55801;BME280;41730;51.960;20.158;2023-02-24T08:20:49;98928.02;;;7.35;81.74
55801;BME280;41730;51.960;20.158;2023-02-24T08:23:23;98920.50;;;7.43;81.26
55801;BME280;41730;51.960;20.158;2023-02-24T08:25:56;98917.50;;;7.49;81.42
55801;BME280;41730;51.960;20.158;2023-02-24T08:28:28;98916.25;;;7.59;81.03
55801;BME280;41730;51.960;20.158;2023-02-24T08:31:04;98914.30;;;7.50;81.17
55801;BME280;41730;51.960;20.158;2023-02-24T08:33:36;98911.93;;;7.47;81.71
55801;BME280;41730;51.960;20.158;2023-02-24T08:36:09;98907.00;;;7.54;81.59
55801;BME280;41730;51.960;20.158;2023-02-24T08:38:42;98907.89;;;7.55;81.35
55801;BME280;41730;51.960;20.158;2023-02-24T08:41:21;98900.82;;;7.47;81.82
55801;BME280;41730;51.960;20.158;2023-02-24T08:44:14;98900.75;;;7.45;82.12
55801;BME280;41730;51.960;20.158;2023-02-24T08:46:46;98898.58;;;7.64;81.62
55801;BME280;41730;51.960;20.158;2023-02-24T08:49:20;98895.17;;;7.68;81.13
55801;BME280;41730;51.960;20.158;2023-02-24T08:51:54;98895.42;;;7.60;81.31
55801;BME280;41730;51.960;20.158;2023-02-24T08:54:31;98892.02;;;7.57;81.77
55801;BME280;41730;51.960;20.158;2023-02-24T08:57:03;98893.02;;;7.65;81.88
55801;BME280;41730;51.960;20.158;2023-02-24T08:59:39;98883.98;;;7.73;81.44
55801;BME280;41730;51.960;20.158;2023-02-24T09:02:20;98885.95;;;7.72;81.40
55801;BME280;41730;51.960;20.158;2023-02-24T09:04:58;98880.40;;;7.74;81.64
55801;BME280;41730;51.960;20.158;2023-02-24T09:07:36;98881.84;;;7.79;81.70
55801;BME280;41730;51.960;20.158;2023-02-24T09:10:14;98876.79;;;7.86;81.26
55801;BME280;41730;51.960;20.158;2023-02-24T09:12:47;98877.21;;;7.87;81.23
55801;BME280;41730;51.960;20.158;2023-02-24T09:15:22;98876.83;;;7.92;81.53
55801;BME280;41730;51.960;20.158;2023-02-24T09:17:55;98874.84;;;7.92;81.68
55801;BME280;41730;51.960;20.158;2023-02-24T09:20:36;98871.69;;;7.96;81.71
55801;BME280;41730;51.960;20.158;2023-02-24T09:23:25;98875.92;;;8.01;81.20
55801;BME280;41730;51.960;20.158;2023-02-24T09:26:01;98874.48;;;8.04;81.17
55801;BME280;41730;51.960;20.158;2023-02-24T09:28:41;98877.44;;;7.98;81.24
55801;BME280;41730;51.960;20.158;2023-02-24T09:31:25;98881.27;;;8.00;81.51
55801;BME280;41730;51.960;20.158;2023-02-24T09:34:10;98878.01;;;8.07;81.11
55801;BME280;41730;51.960;20.158;2023-02-24T09:36:47;98876.13;;;8.03;81.22
55801;BME280;41730;51.960;20.158;2023-02-24T09:39:35;98878.84;;;7.98;81.33
55801;BME280;41730;51.960;20.158;2023-02-24T09:42:36;98874.02;;;8.03;81.28
55801;BME280;41730;51.960;20.158;2023-02-24T09:45:21;98876.39;;;7.91;81.60
55801;BME280;41730;51.960;20.158;2023-02-24T09:48:08;98878.69;;;7.75;82.07
55801;BME280;41730;51.960;20.158;2023-02-24T09:50:46;98875.69;;;7.76;82.09
55801;BME280;41730;51.960;20.158;2023-02-24T09:53:35;98874.05;;;7.83;81.72
55801;BME280;41730;51.960;20.158;2023-02-24T09:56:17;98874.92;;;7.89;81.42
55801;BME280;41730;51.960;20.158;2023-02-24T09:59:00;98870.96;;;7.89;80.67
55801;BME280;41730;51.960;20.158;2023-02-24T10:01:44;98874.31;;;7.72;81.43
55801;BME280;41730;51.960;20.158;2023-02-24T10:04:42;98872.91;;;7.66;81.35
55801;BME280;41730;51.960;20.158;2023-02-24T10:07:21;98875.70;;;7.49;81.83
55801;BME280;41730;51.960;20.158;2023-02-24T10:09:57;98876.24;;;7.54;81.69
55801;BME280;41730;51.960;20.158;2023-02-24T10:12:53;98874.73;;;7.40;81.95
55801;BME280;41730;51.960;20.158;2023-02-24T10:15:31;98865.08;;;7.44;81.72
55801;BME280;41730;51.960;20.158;2023-02-24T10:18:38;98864.54;;;7.43;81.79
55801;BME280;41730;51.960;20.158;2023-02-24T10:21:23;98863.24;;;7.55;81.42
55801;BME280;41730;51.960;20.158;2023-02-24T10:24:21;98861.91;;;7.49;81.34
55801;BME280;41730;51.960;20.158;2023-02-24T10:27:02;98859.11;;;7.41;81.59
55801;BME280;41730;51.960;20.158;2023-02-24T10:29:48;98857.02;;;7.43;81.60
55801;BME280;41730;51.960;20.158;2023-02-24T10:32:31;98855.63;;;7.47;81.70
55801;BME280;41730;51.960;20.158;2023-02-24T10:35:13;98853.05;;;7.56;81.27
55801;BME280;41730;51.960;20.158;2023-02-24T10:37:47;98847.52;;;7.58;81.14
55801;BME280;41730;51.960;20.158;2023-02-24T10:40:20;98844.15;;;7.49;81.20
55801;BME280;41730;51.960;20.158;2023-02-24T10:43:06;98841.67;;;7.32;81.86
55801;BME280;41730;51.960;20.158;2023-02-24T10:45:42;98836.94;;;7.28;82.18
55801;BME280;41730;51.960;20.158;2023-02-24T10:48:20;98830.88;;;7.30;82.03
55801;BME280;41730;51.960;20.158;2023-02-24T10:51:14;98821.65;;;7.33;82.02
55801;BME280;41730;51.960;20.158;2023-02-24T10:53:51;98816.31;;;7.33;82.02
55801;BME280;41730;51.960;20.158;2023-02-24T10:56:40;98807.42;;;7.33;82.46
55801;BME280;41730;51.960;20.158;2023-02-24T10:59:16;98806.20;;;7.38;82.32
55801;BME280;41730;51.960;20.158;2023-02-24T11:02:17;98802.20;;;7.61;81.98
55801;BME280;41730;51.960;20.158;2023-02-24T11:05:08;98795.77;;;7.74;81.44
55801;BME280;41730;51.960;20.158;2023-02-24T11:08:13;98789.34;;;7.84;81.50
55801;BME280;41730;51.960;20.158;2023-02-24T11:11:11;98788.40;;;7.91;81.37
55801;BME280;41730;51.960;20.158;2023-02-24T11:13:56;98784.16;;;7.87;81.82
55801;BME280;41730;51.960;20.158;2023-02-24T11:16:49;98780.98;;;7.94;81.66
55801;BME280;41730;51.960;20.158;2023-02-24T11:19:43;98779.78;;;7.90;82.02
55801;BME280;41730;51.960;20.158;2023-02-24T11:22:21;98771.36;;;8.03;81.93
55801;BME280;41730;51.960;20.158;2023-02-24T11:24:54;98768.52;;;8.24;81.30
55801;BME280;41730;51.960;20.158;2023-02-24T11:27:28;98759.60;;;8.13;81.52
55801;BME280;41730;51.960;20.158;2023-02-24T11:30:16;98750.02;;;8.11;81.81
55801;BME280;41730;51.960;20.158;2023-02-24T11:33:04;98749.60;;;8.14;81.77
55801;BME280;41730;51.960;20.158;2023-02-24T11:35:42;98744.20;;;8.11;81.84
55801;BME280;41730;51.960;20.158;2023-02-24T11:38:28;98745.23;;;8.17;81.55
55801;BME280;41730;51.960;20.158;2023-02-24T11:41:11;98742.98;;;8.21;81.21
55801;BME280;41730;51.960;20.158;2023-02-24T11:43:55;98734.27;;;8.20;81.65
55801;BME280;41730;51.960;20.158;2023-02-24T11:46:35;98735.36;;;8.24;81.44
55801;BME280;41730;51.960;20.158;2023-02-24T11:49:19;98725.01;;;8.26;81.66
55801;BME280;41730;51.960;20.158;2023-02-24T11:51:56;98726.61;;;8.25;81.79
55801;BME280;41730;51.960;20.158;2023-02-24T11:54:35;98717.48;;;8.31;81.69
55801;BME280;41730;51.960;20.158;2023-02-24T11:57:14;98714.55;;;8.35;81.22
55801;BME280;41730;51.960;20.158;2023-02-24T11:59:50;98715.19;;;8.35;81.21
55801;BME280;41730;51.960;20.158;2023-02-24T12:02:32;98718.04;;;8.37;81.16
55801;BME280;41730;51.960;20.158;2023-02-24T12:05:11;98713.46;;;8.37;81.34
55801;BME280;41730;51.960;20.158;2023-02-24T12:07:46;98714.59;;;8.40;81.04
55801;BME280;41730;51.960;20.158;2023-02-24T12:10:23;98714.88;;;8.48;80.70
55801;BME280;41730;51.960;20.158;2023-02-24T12:13:01;98716.11;;;8.48;80.35
55801;BME280;41730;51.960;20.158;2023-02-24T12:15:39;98707.34;;;8.35;81.09
55801;BME280;41730;51.960;20.158;2023-02-24T12:18:20;98706.42;;;8.34;81.00
55801;BME280;41730;51.960;20.158;2023-02-24T12:20:59;98700.08;;;8.31;81.04
55801;BME280;41730;51.960;20.158;2023-02-24T12:23:37;98696.02;;;8.31;81.80
55801;BME280;41730;51.960;20.158;2023-02-24T12:26:19;98692.23;;;8.38;81.84
55801;BME280;41730;51.960;20.158;2023-02-24T12:29:11;98686.05;;;8.48;82.13
55801;BME280;41730;51.960;20.158;2023-02-24T12:31:55;98685.80;;;8.75;81.40
55801;BME280;41730;51.960;20.158;2023-02-24T12:34:42;98684.30;;;8.85;80.88
55801;BME280;41730;51.960;20.158;2023-02-24T12:37:43;98678.38;;;8.82;80.44
55801;BME280;41730;51.960;20.158;2023-02-24T12:40:31;98671.65;;;8.77;80.95
55801;BME280;41730;51.960;20.158;2023-02-24T12:43:11;98663.58;;;8.77;80.75
55801;BME280;41730;51.960;20.158;2023-02-24T12:45:49;98659.56;;;8.76;80.84
55801;BME280;41730;51.960;20.158;2023-02-24T12:51:30;98647.95;;;8.69;81.39
55801;BME280;41730;51.960;20.158;2023-02-24T12:54:12;98646.65;;;8.79;81.04
55801;BME280;41730;51.960;20.158;2023-02-24T12:56:53;98640.82;;;8.80;81.08
55801;BME280;41730;51.960;20.158;2023-02-24T12:59:33;98640.45;;;8.85;80.80
55801;BME280;41730;51.960;20.158;2023-02-24T13:02:13;98637.03;;;8.88;80.78
55801;BME280;41730;51.960;20.158;2023-02-24T13:04:55;98635.27;;;8.89;80.80
55801;BME280;41730;51.960;20.158;2023-02-24T13:07:47;98632.30;;;8.86;80.52
55801;BME280;41730;51.960;20.158;2023-02-24T13:10:31;98625.77;;;8.88;80.50
55801;BME280;41730;51.960;20.158;2023-02-24T13:13:09;98616.95;;;8.96;80.79
55801;BME280;41730;51.960;20.158;2023-02-24T13:15:52;98608.79;;;8.99;81.01
55801;BME280;41730;51.960;20.158;2023-02-24T13:18:28;98597.98;;;9.07;80.67
55801;BME280;41730;51.960;20.158;2023-02-24T13:21:02;98589.05;;;9.20;80.64
55801;BME280;41730;51.960;20.158;2023-02-24T13:23:39;98591.17;;;9.28;79.87
55801;BME280;41730;51.960;20.158;2023-02-24T13:26:11;98583.40;;;9.35;79.62
55801;BME280;41730;51.960;20.158;2023-02-24T13:29:01;98585.73;;;9.43;78.89
55801;BME280;41730;51.960;20.158;2023-02-24T13:31:44;98580.23;;;9.37;78.90
55801;BME280;41730;51.960;20.158;2023-02-24T13:34:31;98573.17;;;9.35;78.67
55801;BME280;41730;51.960;20.158;2023-02-24T13:37:04;98578.20;;;9.25;78.94
55801;BME280;41730;51.960;20.158;2023-02-24T13:39:37;98574.45;;;9.17;78.96
55801;BME280;41730;51.960;20.158;2023-02-24T13:42:22;98569.05;;;9.11;79.30
55801;BME280;41730;51.960;20.158;2023-02-24T13:45:04;98564.94;;;9.16;78.42
55801;BME280;41730;51.960;20.158;2023-02-24T13:47:47;98565.63;;;9.16;78.61
55801;BME280;41730;51.960;20.158;2023-02-24T13:50:33;98564.28;;;9.17;78.67
55801;BME280;41730;51.960;20.158;2023-02-24T13:53:30;98563.28;;;9.32;77.81
55801;BME280;41730;51.960;20.158;2023-02-24T13:56:14;98565.80;;;9.26;78.22
55801;BME280;41730;51.960;20.158;2023-02-24T13:59:03;98566.44;;;9.22;78.38
55801;BME280;41730;51.960;20.158;2023-02-24T14:01:48;98569.23;;;9.24;78.10
55801;BME280;41730;51.960;20.158;2023-02-24T14:04:24;98567.32;;;9.22;78.01
55801;BME280;41730;51.960;20.158;2023-02-24T14:07:03;98567.73;;;9.16;77.99